Time;durP1;ratioP1;P1;durP2;ratioP2;P2;SDS_P1;SDS_P2;PMS_P1;PMS_P2;Temp;Humidity;BMP_temperature;BMP_pressure;BME280_temperature;BME280_humidity;BME280_pressure;Samples;Min_cycle;Max_cycle;Signal;HPM_P1;HPM_P2
2021/12/24 00:01:15;;;;;;;305.95;60.55;;;;;;;;;;5090519;28;20242;-68
2021/12/24 00:03:42;;;;;;;306.35;62.20;;;;;;;;;;5090419;28;20211;-68
2021/12/24 00:06:10;;;;;;;318.15;61.65;;;;;;;;;;5090726;28;20240;-68
2021/12/24 00:08:38;;;;;;;323.88;62.42;;;;;;;;;;5090265;28;20236;-67
2021/12/24 00:11:06;;;;;;;312.85;61.88;;;;;;;;;;5090479;28;20731;-67
2021/12/24 00:13:35;;;;;;;321.40;61.45;;;;;;;;;;5090449;28;20204;-68
2021/12/24 00:16:08;;;;;;;320.08;65.15;;;;;;;;;;5090274;28;20272;-67
2021/12/24 00:18:46;;;;;;;314.60;60.20;;;;;;;;;;5090629;28;20235;-67
2021/12/24 00:35:29;;;;;;;318.40;60.80;;;;;;;;;;5084667;28;20695;-68
2021/12/24 00:38:01;;;;;;;321.17;66.25;;;;;;;;;;5085103;28;20223;-67
2021/12/24 00:40:28;;;;;;;336.08;73.57;;;;;;;;;;5090301;28;20203;-67
2021/12/24 00:42:57;;;;;;;412.15;149.45;;;;;;;;;;5093807;28;20207;-67
2021/12/24 00:45:26;;;;;;;321.02;59.30;;;;;;;;;;5093685;28;20204;-67
2021/12/24 00:47:53;;;;;;;410.48;171.38;;;;;;;;;;5093776;28;20326;-67
2021/12/24 00:50:25;;;;;;;492.40;275.00;;;;;;;;;;5093689;28;20222;-67
2021/12/24 00:52:57;;;;;;;328.80;62.30;;;;;;;;;;5093769;28;20230;-69
2021/12/24 00:55:24;;;;;;;334.70;64.15;;;;;;;;;;5093626;28;20651;-68
2021/12/24 00:57:52;;;;;;;313.40;61.60;;;;;;;;;;5093577;28;20228;-67
2021/12/24 01:00:21;;;;;;;303.60;58.95;;;;;;;;;;5093771;28;20204;-67
2021/12/24 01:02:50;;;;;;;315.45;60.78;;;;;;;;;;5093547;28;20668;-68
2021/12/24 01:05:18;;;;;;;313.67;60.22;;;;;;;;;;5093236;28;20672;-68
2021/12/24 01:07:48;;;;;;;315.75;61.60;;;;;;;;;;5093164;28;20227;-68
2021/12/24 01:10:16;;;;;;;320.23;63.17;;;;;;;;;;5086551;28;20211;-67
2021/12/24 01:12:44;;;;;;;356.50;86.45;;;;;;;;;;5093351;28;20200;-68
2021/12/24 01:15:13;;;;;;;506.92;319.08;;;;;;;;;;5093476;28;20211;-67
2021/12/24 01:17:45;;;;;;;389.98;143.95;;;;;;;;;;5093441;28;20239;-67
2021/12/24 01:20:22;;;;;;;310.33;61.55;;;;;;;;;;5093174;28;20212;-68
2021/12/24 01:25:40;;;;;;;304.20;59.75;;;;;;;;;;5093532;28;20210;-67
2021/12/24 01:39:17;;;;;;;313.45;60.08;;;;;;;;;;5092702;28;20211;-68
2021/12/24 01:44:29;;;;;;;314.60;64.25;;;;;;;;;;5092934;28;20272;-67
2021/12/24 01:46:58;;;;;;;323.88;62.55;;;;;;;;;;5092481;28;20734;-71
2021/12/24 01:49:26;;;;;;;313.38;62.45;;;;;;;;;;5092507;28;20207;-67
2021/12/24 01:51:54;;;;;;;322.50;64.65;;;;;;;;;;5092187;28;20660;-68
2021/12/24 01:54:23;;;;;;;314.25;61.22;;;;;;;;;;5092759;28;20204;-67
2021/12/24 01:56:50;;;;;;;301.20;60.03;;;;;;;;;;5092587;28;20217;-67
2021/12/24 01:59:18;;;;;;;314.33;61.17;;;;;;;;;;5092381;28;20231;-68
2021/12/24 02:01:45;;;;;;;313.92;61.10;;;;;;;;;;5092306;28;20236;-68
2021/12/24 02:04:14;;;;;;;311.08;60.60;;;;;;;;;;5092281;28;20273;-68
2021/12/24 02:06:42;;;;;;;309.88;59.90;;;;;;;;;;5092251;28;20208;-67
2021/12/24 02:09:10;;;;;;;316.13;58.78;;;;;;;;;;5092324;28;20228;-67
2021/12/24 02:11:39;;;;;;;318.88;62.10;;;;;;;;;;5092262;28;20311;-68
2021/12/24 02:14:08;;;;;;;323.25;60.42;;;;;;;;;;5091960;28;20211;-67
2021/12/24 02:30:34;;;;;;;312.33;58.78;;;;;;;;;;5091825;28;20740;-68
2021/12/24 02:33:02;;;;;;;315.23;60.40;;;;;;;;;;5091439;28;20611;-67
2021/12/24 02:35:30;;;;;;;311.35;60.10;;;;;;;;;;5091512;28;20200;-67
2021/12/24 02:37:59;;;;;;;327.55;66.70;;;;;;;;;;5091343;28;20212;-67
2021/12/24 02:40:27;;;;;;;313.15;61.22;;;;;;;;;;5091705;28;20216;-67
2021/12/24 02:42:56;;;;;;;327.70;62.35;;;;;;;;;;5091592;28;20647;-68
2021/12/24 02:45:24;;;;;;;313.85;62.45;;;;;;;;;;5091744;28;20302;-68
2021/12/24 02:56:10;;;;;;;327.23;60.90;;;;;;;;;;5091113;28;20226;-68
2021/12/24 02:58:41;;;;;;;314.02;60.47;;;;;;;;;;5090876;28;20631;-67
2021/12/24 03:01:09;;;;;;;325.80;62.25;;;;;;;;;;5091258;28;20616;-68
2021/12/24 03:03:36;;;;;;;325.83;63.40;;;;;;;;;;5091347;28;20261;-67
2021/12/24 03:06:04;;;;;;;331.67;67.65;;;;;;;;;;5091710;28;20216;-67
2021/12/24 03:08:33;;;;;;;320.65;64.10;;;;;;;;;;5091164;28;20234;-67
2021/12/24 03:11:00;;;;;;;323.45;60.97;;;;;;;;;;5090940;28;20199;-67
2021/12/24 03:13:28;;;;;;;313.08;59.65;;;;;;;;;;5091574;28;20239;-69
2021/12/24 03:15:58;;;;;;;319.48;63.53;;;;;;;;;;5091013;28;20206;-67
2021/12/24 03:18:28;;;;;;;315.27;58.72;;;;;;;;;;5090954;28;20212;-67
2021/12/24 03:21:02;;;;;;;330.10;74.13;;;;;;;;;;5091048;28;20207;-67
2021/12/24 03:23:36;;;;;;;324.52;63.95;;;;;;;;;;5090848;28;20265;-67
2021/12/24 03:26:06;;;;;;;322.80;62.75;;;;;;;;;;5090985;28;20294;-68
2021/12/24 03:28:34;;;;;;;320.17;62.50;;;;;;;;;;5090900;28;20235;-68
2021/12/24 03:31:02;;;;;;;354.67;101.60;;;;;;;;;;5090890;28;20204;-67
2021/12/24 03:33:29;;;;;;;316.25;61.85;;;;;;;;;;5090225;28;20231;-67
2021/12/24 03:35:57;;;;;;;321.98;66.18;;;;;;;;;;5090573;28;20196;-68
2021/12/24 03:38:25;;;;;;;327.27;63.55;;;;;;;;;;5091024;28;20214;-67
2021/12/24 03:40:52;;;;;;;317.23;64.80;;;;;;;;;;5090780;28;20243;-67
2021/12/24 03:43:21;;;;;;;318.95;62.70;;;;;;;;;;5090895;28;20200;-67
2021/12/24 03:45:58;;;;;;;318.58;66.70;;;;;;;;;;5083563;28;20656;-67
2021/12/24 03:48:38;;;;;;;319.75;62.25;;;;;;;;;;5084240;28;20233;-67
2021/12/24 03:51:22;;;;;;;311.08;59.63;;;;;;;;;;5090669;28;20215;-67
2021/12/24 03:56:36;;;;;;;337.58;66.47;;;;;;;;;;5090673;28;20215;-67
2021/12/24 03:59:05;;;;;;;330.67;62.70;;;;;;;;;;5090165;28;20227;-67
2021/12/24 04:01:32;;;;;;;324.95;61.60;;;;;;;;;;5090801;28;20212;-68
2021/12/24 04:04:00;;;;;;;320.40;65.03;;;;;;;;;;5090422;28;20572;-69
2021/12/24 04:06:27;;;;;;;319.13;61.20;;;;;;;;;;5090569;28;20626;-68
2021/12/24 04:08:56;;;;;;;351.73;72.47;;;;;;;;;;5090579;28;20787;-67
2021/12/24 04:11:23;;;;;;;335.00;65.93;;;;;;;;;;5090334;28;20208;-68
2021/12/24 04:13:51;;;;;;;334.58;65.00;;;;;;;;;;5090543;28;20200;-67
2021/12/24 04:16:20;;;;;;;320.77;61.42;;;;;;;;;;5091932;28;20664;-68
2021/12/24 04:18:54;;;;;;;320.95;60.30;;;;;;;;;;5094331;28;20211;-67
2021/12/24 04:26:52;;;;;;;357.25;80.13;;;;;;;;;;5094475;28;20699;-67
2021/12/24 04:29:19;;;;;;;334.13;64.65;;;;;;;;;;5094195;28;20239;-67
2021/12/24 04:31:55;;;;;;;339.45;64.22;;;;;;;;;;5093940;28;20226;-68
2021/12/24 04:34:26;;;;;;;330.13;64.20;;;;;;;;;;5094231;28;20235;-70
2021/12/24 04:37:33;;;;;;;334.15;63.65;;;;;;;;;;5094121;28;20702;-68
2021/12/24 04:39:56;;;;;;;326.88;64.05;;;;;;;;;;5093603;28;20248;-67
2021/12/24 04:51:09;;;;;;;326.30;62.85;;;;;;;;;;5093820;28;20289;-67
2021/12/24 05:01:59;;;;;;;317.55;63.33;;;;;;;;;;5093446;28;20294;-68
2021/12/24 05:04:32;;;;;;;312.50;62.35;;;;;;;;;;5093745;28;20590;-67
2021/12/24 05:07:08;;;;;;;329.73;65.78;;;;;;;;;;5093570;28;20247;-68
2021/12/24 05:09:39;;;;;;;329.00;63.33;;;;;;;;;;5093351;28;20227;-67
2021/12/24 05:12:07;;;;;;;326.88;64.40;;;;;;;;;;5093136;28;20211;-67
2021/12/24 05:14:34;;;;;;;327.80;65.38;;;;;;;;;;5093446;28;20258;-70
2021/12/24 05:17:19;;;;;;;308.83;62.15;;;;;;;;;;5093346;28;20212;-67
2021/12/24 05:22:33;;;;;;;318.27;61.45;;;;;;;;;;5093487;28;20242;-69
2021/12/24 05:25:01;;;;;;;307.20;63.35;;;;;;;;;;5093804;28;20216;-68
2021/12/24 05:27:28;;;;;;;347.10;66.25;;;;;;;;;;5092802;28;20572;-67
2021/12/24 05:29:56;;;;;;;339.75;69.80;;;;;;;;;;5092554;28;20741;-69
2021/12/24 05:32:24;;;;;;;332.50;62.88;;;;;;;;;;5092806;28;20207;-67
2021/12/24 05:34:52;;;;;;;338.30;64.50;;;;;;;;;;5092654;28;20250;-67
2021/12/24 05:37:20;;;;;;;332.25;67.30;;;;;;;;;;5092839;28;20204;-67
2021/12/24 05:39:47;;;;;;;326.30;64.60;;;;;;;;;;5092722;28;20214;-67
2021/12/24 05:42:15;;;;;;;310.02;62.75;;;;;;;;;;5092791;28;20204;-68
2021/12/24 05:44:42;;;;;;;323.95;63.67;;;;;;;;;;5092983;28;20287;-67
2021/12/24 05:47:10;;;;;;;325.17;61.97;;;;;;;;;;5092492;28;20660;-68
2021/12/24 05:49:37;;;;;;;306.55;59.33;;;;;;;;;;5092832;28;20330;-67
2021/12/24 05:52:06;;;;;;;321.17;62.10;;;;;;;;;;5092687;28;20207;-68
2021/12/24 05:54:34;;;;;;;311.98;62.85;;;;;;;;;;5092462;28;20203;-67
2021/12/24 05:57:01;;;;;;;317.67;62.25;;;;;;;;;;5092508;28;20208;-67
2021/12/24 05:59:29;;;;;;;310.02;58.33;;;;;;;;;;5092338;28;20310;-68
2021/12/24 06:01:56;;;;;;;376.50;79.93;;;;;;;;;;5092042;28;20204;-68
2021/12/24 06:04:23;;;;;;;414.60;89.22;;;;;;;;;;5092351;28;20204;-68
2021/12/24 06:06:51;;;;;;;349.50;74.75;;;;;;;;;;5092485;28;20298;-67
2021/12/24 06:09:20;;;;;;;396.77;83.70;;;;;;;;;;5092261;28;20679;-67
2021/12/24 06:11:47;;;;;;;351.08;74.47;;;;;;;;;;5092101;28;20200;-67
2021/12/24 06:14:15;;;;;;;376.65;78.75;;;;;;;;;;5092035;28;20665;-67
2021/12/24 06:16:48;;;;;;;353.02;77.60;;;;;;;;;;5092349;28;20729;-70
2021/12/24 06:19:16;;;;;;;342.90;68.80;;;;;;;;;;5092502;28;20290;-67
2021/12/24 06:21:44;;;;;;;319.80;64.47;;;;;;;;;;5092656;28;20239;-68
2021/12/24 06:24:12;;;;;;;328.45;69.50;;;;;;;;;;5092150;28;20707;-67
2021/12/24 06:26:41;;;;;;;322.80;65.60;;;;;;;;;;5092133;28;20232;-67
2021/12/24 06:29:09;;;;;;;316.10;62.92;;;;;;;;;;5091990;28;20231;-68
2021/12/24 06:31:36;;;;;;;317.65;63.92;;;;;;;;;;5091923;28;20247;-67
2021/12/24 06:34:04;;;;;;;335.88;76.13;;;;;;;;;;5091260;28;20739;-68
2021/12/24 06:36:35;;;;;;;333.10;72.15;;;;;;;;;;5091565;28;20207;-67
2021/12/24 06:39:03;;;;;;;333.63;76.15;;;;;;;;;;5090951;28;20239;-67
2021/12/24 06:41:30;;;;;;;327.30;67.70;;;;;;;;;;5091541;28;20211;-68
2021/12/24 06:43:59;;;;;;;352.15;72.38;;;;;;;;;;5091581;28;20223;-67
2021/12/24 06:46:27;;;;;;;324.25;66.13;;;;;;;;;;5091705;28;20208;-67
2021/12/24 06:48:56;;;;;;;324.13;67.55;;;;;;;;;;5091504;28;20239;-68
2021/12/24 06:51:23;;;;;;;335.55;66.55;;;;;;;;;;5091482;28;20204;-68
2021/12/24 06:53:51;;;;;;;336.08;67.90;;;;;;;;;;5091080;28;20203;-67
2021/12/24 06:56:18;;;;;;;342.50;65.80;;;;;;;;;;5091486;28;20207;-69
2021/12/24 06:58:46;;;;;;;351.48;66.00;;;;;;;;;;5091529;28;20289;-67
2021/12/24 07:01:15;;;;;;;348.90;68.78;;;;;;;;;;5091327;28;20203;-69
2021/12/24 07:03:42;;;;;;;341.80;68.97;;;;;;;;;;5091451;28;20294;-67
2021/12/24 07:06:10;;;;;;;337.65;67.38;;;;;;;;;;5091215;28;20211;-67
2021/12/24 07:08:38;;;;;;;346.10;68.78;;;;;;;;;;5091525;28;20239;-67
2021/12/24 07:11:06;;;;;;;332.38;67.60;;;;;;;;;;5091483;28;20699;-67
2021/12/24 07:13:33;;;;;;;326.33;63.70;;;;;;;;;;5091043;28;20209;-68
2021/12/24 07:16:01;;;;;;;347.90;70.40;;;;;;;;;;5091050;28;20211;-67
2021/12/24 07:18:30;;;;;;;354.10;71.20;;;;;;;;;;5091067;28;20579;-68
2021/12/24 07:20:57;;;;;;;375.35;77.35;;;;;;;;;;5090880;28;20204;-67
2021/12/24 07:23:25;;;;;;;356.58;74.07;;;;;;;;;;5091252;28;20200;-67
2021/12/24 07:25:52;;;;;;;363.05;76.68;;;;;;;;;;5090800;28;20247;-67
2021/12/24 07:28:19;;;;;;;354.65;74.72;;;;;;;;;;5090995;28;20299;-67
2021/12/24 07:30:47;;;;;;;352.35;70.03;;;;;;;;;;5090801;28;20231;-67
2021/12/24 07:33:14;;;;;;;348.10;70.45;;;;;;;;;;5090730;28;20239;-68
2021/12/24 07:35:43;;;;;;;367.02;68.75;;;;;;;;;;5090817;28;20588;-67
2021/12/24 07:38:13;;;;;;;363.80;76.05;;;;;;;;;;5090831;28;20569;-67
2021/12/24 07:40:41;;;;;;;361.20;73.97;;;;;;;;;;5090681;28;20269;-67
2021/12/24 07:43:09;;;;;;;351.92;69.82;;;;;;;;;;5090451;28;20211;-68
2021/12/24 07:45:38;;;;;;;341.67;66.45;;;;;;;;;;5090535;28;20208;-67
2021/12/24 07:48:10;;;;;;;349.17;71.05;;;;;;;;;;5090278;28;20214;-68
2021/12/24 07:53:25;;;;;;;325.50;60.97;;;;;;;;;;5090668;28;20264;-69
2021/12/24 07:55:54;;;;;;;347.95;66.85;;;;;;;;;;5094629;28;20208;-67
2021/12/24 07:58:21;;;;;;;336.27;62.67;;;;;;;;;;5094860;28;20239;-69
2021/12/24 08:00:50;;;;;;;349.98;67.50;;;;;;;;;;5095084;28;20594;-68
2021/12/24 08:03:18;;;;;;;341.55;66.43;;;;;;;;;;5094584;28;20202;-67
2021/12/24 08:05:48;;;;;;;363.83;68.40;;;;;;;;;;5094349;28;20204;-68
2021/12/24 08:08:16;;;;;;;353.60;65.55;;;;;;;;;;5094534;28;20213;-67
2021/12/24 08:10:45;;;;;;;357.73;69.20;;;;;;;;;;5094419;28;20711;-70
2021/12/24 08:13:12;;;;;;;364.90;71.63;;;;;;;;;;5094455;28;20269;-67
2021/12/24 08:15:40;;;;;;;368.95;74.95;;;;;;;;;;5094603;28;20664;-67
2021/12/24 08:18:07;;;;;;;367.15;72.13;;;;;;;;;;5094095;28;20688;-67
2021/12/24 08:20:35;;;;;;;349.60;67.28;;;;;;;;;;5094413;28;20292;-67
2021/12/24 08:23:02;;;;;;;352.25;70.55;;;;;;;;;;5094518;28;20235;-67
2021/12/24 08:25:30;;;;;;;348.92;67.13;;;;;;;;;;5094042;28;20200;-68
2021/12/24 08:27:59;;;;;;;368.13;76.05;;;;;;;;;;5093841;28;20218;-67
2021/12/24 08:30:26;;;;;;;361.40;70.22;;;;;;;;;;5093991;28;20232;-67
2021/12/24 08:32:56;;;;;;;380.30;77.43;;;;;;;;;;5093846;28;20203;-68
2021/12/24 08:35:24;;;;;;;395.90;81.95;;;;;;;;;;5094109;28;20272;-70
2021/12/24 08:37:51;;;;;;;375.65;79.65;;;;;;;;;;5093636;28;20208;-68
2021/12/24 08:40:19;;;;;;;368.80;68.60;;;;;;;;;;5093877;28;20298;-68
2021/12/24 08:42:47;;;;;;;364.48;70.03;;;;;;;;;;5094154;28;20273;-67
2021/12/24 08:45:16;;;;;;;371.38;69.95;;;;;;;;;;5093850;28;20223;-67
2021/12/24 08:47:43;;;;;;;380.52;74.18;;;;;;;;;;5093695;28;20774;-70
2021/12/24 08:50:12;;;;;;;377.17;73.53;;;;;;;;;;5093807;28;20228;-67
2021/12/24 08:52:42;;;;;;;393.88;77.50;;;;;;;;;;5093623;28;20202;-67
2021/12/24 08:55:10;;;;;;;408.50;81.05;;;;;;;;;;5094130;28;20285;-70
2021/12/24 08:57:38;;;;;;;424.60;90.00;;;;;;;;;;5093384;28;20268;-67
2021/12/24 09:00:08;;;;;;;434.98;91.97;;;;;;;;;;5093456;28;20208;-68
2021/12/24 09:02:37;;;;;;;439.40;97.03;;;;;;;;;;5092857;28;20212;-68
2021/12/24 09:05:05;;;;;;;441.73;101.18;;;;;;;;;;5093279;28;20632;-69
2021/12/24 09:07:33;;;;;;;446.27;107.90;;;;;;;;;;5086771;28;20228;-68
2021/12/24 09:10:00;;;;;;;453.00;123.22;;;;;;;;;;5092985;28;20744;-68
2021/12/24 09:12:28;;;;;;;447.90;124.60;;;;;;;;;;5093753;28;20309;-68
2021/12/24 09:14:55;;;;;;;448.98;127.57;;;;;;;;;;5093227;28;20210;-68
2021/12/24 09:17:23;;;;;;;444.13;120.25;;;;;;;;;;5093017;28;20226;-68
2021/12/24 09:19:53;;;;;;;436.85;108.30;;;;;;;;;;5092855;28;20208;-68
2021/12/24 09:22:28;;;;;;;439.88;118.93;;;;;;;;;;5092977;28;20258;-68
2021/12/24 09:24:56;;;;;;;436.48;102.00;;;;;;;;;;5092948;28;20295;-68
2021/12/24 09:27:24;;;;;;;436.02;105.00;;;;;;;;;;5093207;28;20303;-69
2021/12/24 09:29:51;;;;;;;441.80;108.10;;;;;;;;;;5092737;28;20236;-68
2021/12/24 09:32:19;;;;;;;431.35;101.05;;;;;;;;;;5092996;28;20208;-70
2021/12/24 09:34:46;;;;;;;429.30;97.38;;;;;;;;;;5092916;28;20708;-68
2021/12/24 09:37:15;;;;;;;428.90;88.90;;;;;;;;;;5093026;28;20208;-69
2021/12/24 09:39:42;;;;;;;429.10;91.80;;;;;;;;;;5092844;28;20207;-69
2021/12/24 09:42:10;;;;;;;428.48;92.47;;;;;;;;;;5092628;28;20210;-68
2021/12/24 09:44:38;;;;;;;429.08;90.28;;;;;;;;;;5092508;28;20208;-68
2021/12/24 09:47:05;;;;;;;428.50;89.20;;;;;;;;;;5093024;28;20243;-68
2021/12/24 09:49:33;;;;;;;431.15;89.57;;;;;;;;;;5092667;28;20590;-68
2021/12/24 09:52:02;;;;;;;428.83;91.43;;;;;;;;;;5085239;28;20213;-68
2021/12/24 09:54:31;;;;;;;420.00;86.40;;;;;;;;;;5092316;28;20690;-68
2021/12/24 09:57:01;;;;;;;417.23;83.22;;;;;;;;;;5092416;28;20204;-68
2021/12/24 09:59:29;;;;;;;409.65;78.60;;;;;;;;;;5091958;28;20224;-70
2021/12/24 10:01:57;;;;;;;413.90;83.22;;;;;;;;;;5092010;28;20669;-68
2021/12/24 10:04:29;;;;;;;422.17;83.80;;;;;;;;;;5092638;28;20248;-67
2021/12/24 10:06:59;;;;;;;414.92;78.55;;;;;;;;;;5092222;28;20665;-67
2021/12/24 10:09:31;;;;;;;412.80;79.97;;;;;;;;;;5092253;28;20668;-68
2021/12/24 10:12:00;;;;;;;429.23;89.63;;;;;;;;;;5091877;28;20611;-70
2021/12/24 10:14:31;;;;;;;421.10;83.90;;;;;;;;;;5090889;28;20204;-67
2021/12/24 10:16:59;;;;;;;427.52;86.85;;;;;;;;;;5092075;28;20211;-70
2021/12/24 10:19:26;;;;;;;419.25;84.45;;;;;;;;;;5092057;28;20213;-68
2021/12/24 10:21:59;;;;;;;425.67;88.38;;;;;;;;;;5091697;28;20218;-68
2021/12/24 10:24:27;;;;;;;432.45;95.68;;;;;;;;;;5091867;28;20634;-68
2021/12/24 10:26:57;;;;;;;432.83;98.95;;;;;;;;;;5091883;28;20210;-68
2021/12/24 10:29:30;;;;;;;434.02;97.07;;;;;;;;;;5091916;28;20204;-67
2021/12/24 10:31:58;;;;;;;436.23;102.32;;;;;;;;;;5091705;28;20316;-68
2021/12/24 10:34:26;;;;;;;426.70;95.70;;;;;;;;;;5091927;28;20747;-67
2021/12/24 10:37:00;;;;;;;427.77;96.55;;;;;;;;;;5091849;28;20265;-68
2021/12/24 10:39:30;;;;;;;429.48;93.43;;;;;;;;;;5091595;28;20455;-67
2021/12/24 10:41:59;;;;;;;433.92;101.82;;;;;;;;;;5091334;28;20200;-68
2021/12/24 10:44:27;;;;;;;426.92;93.13;;;;;;;;;;5091564;28;20203;-68
2021/12/24 10:46:59;;;;;;;428.38;91.88;;;;;;;;;;5091425;28;20597;-71
2021/12/24 10:49:38;;;;;;;426.70;89.80;;;;;;;;;;5085271;28;20428;-68
2021/12/24 10:52:16;;;;;;;425.38;86.55;;;;;;;;;;5085822;28;20218;-67
2021/12/24 10:54:51;;;;;;;428.70;89.82;;;;;;;;;;5091507;28;20899;-67
2021/12/24 10:57:23;;;;;;;428.00;90.18;;;;;;;;;;5091379;28;20207;-70
2021/12/24 10:59:51;;;;;;;431.58;95.38;;;;;;;;;;5090651;28;20258;-68
2021/12/24 11:02:19;;;;;;;422.65;89.47;;;;;;;;;;5091582;28;20215;-71
2021/12/24 11:04:47;;;;;;;421.58;86.80;;;;;;;;;;5084599;28;20658;-68
2021/12/24 11:07:29;;;;;;;425.25;93.38;;;;;;;;;;5091341;28;20241;-71
2021/12/24 11:10:09;;;;;;;425.98;92.38;;;;;;;;;;5084248;28;20214;-67
2021/12/24 11:12:38;;;;;;;428.17;91.97;;;;;;;;;;5091642;28;20638;-70
2021/12/24 11:15:18;;;;;;;424.27;87.90;;;;;;;;;;5091006;28;20209;-69
2021/12/24 11:17:46;;;;;;;423.42;85.88;;;;;;;;;;5090860;28;20209;-69
2021/12/24 11:20:14;;;;;;;417.20;87.15;;;;;;;;;;5091076;28;20295;-69
2021/12/24 11:22:51;;;;;;;419.73;88.10;;;;;;;;;;5090833;28;20210;-68
2021/12/24 11:25:20;;;;;;;421.65;86.60;;;;;;;;;;5083916;28;21059;-68
2021/12/24 11:27:49;;;;;;;423.27;92.07;;;;;;;;;;5090638;28;20210;-68
2021/12/24 11:30:16;;;;;;;423.77;89.40;;;;;;;;;;5090784;28;20232;-68
2021/12/24 11:32:45;;;;;;;421.48;88.15;;;;;;;;;;5090434;28;20242;-72
2021/12/24 11:35:14;;;;;;;421.60;89.05;;;;;;;;;;5090725;28;20202;-68
2021/12/24 11:37:44;;;;;;;418.67;85.80;;;;;;;;;;5090677;28;20685;-68
2021/12/24 11:40:12;;;;;;;417.52;86.30;;;;;;;;;;5091108;28;20209;-69
2021/12/24 11:42:40;;;;;;;414.92;83.10;;;;;;;;;;5090726;28;20271;-70
2021/12/24 11:45:09;;;;;;;419.25;85.22;;;;;;;;;;5090607;28;20200;-69
2021/12/24 11:47:37;;;;;;;422.50;87.03;;;;;;;;;;5090688;28;20219;-70
2021/12/24 11:50:05;;;;;;;421.23;88.97;;;;;;;;;;5090715;28;20258;-70
2021/12/24 11:52:32;;;;;;;415.10;86.50;;;;;;;;;;5090555;28;20206;-68
2021/12/24 11:55:00;;;;;;;417.92;85.90;;;;;;;;;;5090718;28;20204;-70
2021/12/24 11:57:27;;;;;;;421.83;90.45;;;;;;;;;;5090522;28;20668;-69
2021/12/24 11:59:55;;;;;;;424.23;95.47;;;;;;;;;;5090130;28;20237;-72
2021/12/24 12:02:44;;;;;;;428.02;94.78;;;;;;;;;;5090421;28;20261;-70
2021/12/24 12:05:22;;;;;;;424.38;89.93;;;;;;;;;;5090647;28;20212;-68
2021/12/24 12:07:51;;;;;;;423.05;92.28;;;;;;;;;;5090178;28;20208;-68
2021/12/24 12:10:33;;;;;;;422.50;92.75;;;;;;;;;;5090271;28;20202;-68
2021/12/24 12:13:00;;;;;;;422.05;92.20;;;;;;;;;;5090208;28;20208;-68
2021/12/24 12:15:29;;;;;;;423.02;91.32;;;;;;;;;;5090272;28;20661;-69
2021/12/24 12:17:59;;;;;;;431.42;102.93;;;;;;;;;;5090043;28;20673;-70
2021/12/24 12:20:41;;;;;;;424.65;96.40;;;;;;;;;;5090469;28;20230;-69
2021/12/24 12:23:14;;;;;;;416.08;87.40;;;;;;;;;;5090267;28;20207;-70
2021/12/24 12:25:42;;;;;;;416.60;92.10;;;;;;;;;;5090492;28;20206;-68
2021/12/24 12:28:15;;;;;;;421.45;88.82;;;;;;;;;;5089996;28;20682;-69
2021/12/24 12:30:49;;;;;;;419.75;89.63;;;;;;;;;;5090164;28;20603;-70
2021/12/24 12:33:18;;;;;;;423.17;95.40;;;;;;;;;;5090132;28;20712;-70
2021/12/24 12:35:47;;;;;;;419.40;90.35;;;;;;;;;;5089856;28;20280;-70
2021/12/24 12:38:29;;;;;;;424.25;93.68;;;;;;;;;;5093095;28;20210;-70
2021/12/24 12:41:18;;;;;;;420.05;91.47;;;;;;;;;;5094074;28;20290;-70
2021/12/24 12:43:46;;;;;;;422.17;91.25;;;;;;;;;;5093541;28;20208;-68
2021/12/24 12:46:20;;;;;;;424.75;95.60;;;;;;;;;;5093746;28;20243;-70
2021/12/24 12:48:53;;;;;;;421.65;91.47;;;;;;;;;;5093978;28;20214;-67
2021/12/24 12:51:22;;;;;;;425.52;97.30;;;;;;;;;;5093643;28;20700;-68
2021/12/24 12:53:55;;;;;;;424.35;94.00;;;;;;;;;;5093334;28;20660;-68
2021/12/24 12:56:26;;;;;;;434.48;108.35;;;;;;;;;;5093668;28;20214;-67
2021/12/24 12:58:58;;;;;;;432.90;107.25;;;;;;;;;;5093688;28;20234;-72
2021/12/24 13:01:26;;;;;;;428.38;101.82;;;;;;;;;;5093481;28;20676;-68
2021/12/24 13:04:13;;;;;;;429.80;101.55;;;;;;;;;;5093350;28;20212;-68
2021/12/24 13:07:02;;;;;;;431.40;105.28;;;;;;;;;;5093332;28;20208;-68
2021/12/24 13:09:33;;;;;;;426.40;101.95;;;;;;;;;;5087497;28;20235;-67
2021/12/24 13:12:01;;;;;;;442.80;122.10;;;;;;;;;;5086508;28;20242;-68
2021/12/24 13:14:29;;;;;;;433.23;113.68;;;;;;;;;;5093333;28;20656;-68
2021/12/24 13:17:16;;;;;;;433.25;109.28;;;;;;;;;;5093334;28;20224;-68
2021/12/24 13:20:09;;;;;;;433.58;111.32;;;;;;;;;;5086744;28;20314;-68
2021/12/24 13:22:37;;;;;;;430.10;107.13;;;;;;;;;;5093492;28;20208;-69
2021/12/24 13:25:09;;;;;;;431.90;107.80;;;;;;;;;;5093190;28;20298;-69
2021/12/24 13:27:39;;;;;;;435.02;110.43;;;;;;;;;;5092960;28;20196;-68
2021/12/24 13:30:14;;;;;;;434.35;118.18;;;;;;;;;;5093163;28;20567;-68
2021/12/24 13:32:42;;;;;;;430.92;107.78;;;;;;;;;;5092532;28;20304;-68
2021/12/24 13:35:12;;;;;;;435.08;109.18;;;;;;;;;;5093111;28;20204;-68
2021/12/24 13:37:45;;;;;;;432.17;106.88;;;;;;;;;;5086044;28;20208;-68
2021/12/24 13:40:13;;;;;;;433.67;108.55;;;;;;;;;;5092697;28;20216;-68
2021/12/24 13:42:45;;;;;;;429.00;100.85;;;;;;;;;;5092954;28;20215;-69
2021/12/24 13:45:13;;;;;;;425.52;98.22;;;;;;;;;;5092808;28;20230;-67
2021/12/24 13:47:52;;;;;;;429.13;99.47;;;;;;;;;;5092524;28;20204;-68
2021/12/24 13:56:03;;;;;;;429.30;96.45;;;;;;;;;;5092411;28;20237;-67
2021/12/24 13:58:31;;;;;;;421.80;89.22;;;;;;;;;;5092690;28;20226;-70
2021/12/24 14:00:59;;;;;;;425.02;95.07;;;;;;;;;;5092244;28;20203;-67
2021/12/24 14:03:28;;;;;;;417.60;85.18;;;;;;;;;;5092493;28;20231;-71
2021/12/24 14:05:57;;;;;;;423.85;94.25;;;;;;;;;;5092055;28;20213;-69
2021/12/24 14:08:26;;;;;;;423.17;91.63;;;;;;;;;;5092297;28;20213;-69
2021/12/24 14:11:05;;;;;;;421.23;92.18;;;;;;;;;;5092136;28;20196;-68
2021/12/24 14:13:37;;;;;;;418.17;87.43;;;;;;;;;;5091948;28;20586;-69
2021/12/24 14:16:11;;;;;;;423.60;89.20;;;;;;;;;;5091909;28;20208;-70
2021/12/24 14:18:47;;;;;;;415.08;86.00;;;;;;;;;;5092332;28;20203;-68
2021/12/24 14:21:49;;;;;;;414.70;82.97;;;;;;;;;;5092107;28;20212;-70
2021/12/24 14:24:24;;;;;;;417.00;83.25;;;;;;;;;;5092166;28;20275;-69
2021/12/24 14:26:53;;;;;;;410.85;80.38;;;;;;;;;;5092188;28;20223;-69
2021/12/24 14:29:29;;;;;;;414.38;82.18;;;;;;;;;;5092056;28;20212;-69
2021/12/24 14:31:57;;;;;;;416.05;87.22;;;;;;;;;;5091431;28;20325;-69
2021/12/24 14:34:32;;;;;;;419.15;84.38;;;;;;;;;;5091739;28;20248;-72
2021/12/24 14:37:02;;;;;;;413.08;80.47;;;;;;;;;;5091905;28;20211;-70
2021/12/24 14:39:35;;;;;;;413.35;79.57;;;;;;;;;;5091825;28;20236;-68
2021/12/24 14:42:13;;;;;;;424.75;86.43;;;;;;;;;;5091583;28;20660;-69
2021/12/24 14:44:40;;;;;;;418.75;82.63;;;;;;;;;;5091413;28;20287;-70
2021/12/24 14:47:08;;;;;;;414.25;81.30;;;;;;;;;;5091656;28;20204;-69
2021/12/24 14:49:36;;;;;;;418.27;81.65;;;;;;;;;;5091584;28;20208;-69
2021/12/24 14:52:26;;;;;;;426.65;89.28;;;;;;;;;;5091451;28;20258;-69
2021/12/24 14:55:11;;;;;;;410.95;81.45;;;;;;;;;;5091266;28;20203;-71
2021/12/24 14:57:59;;;;;;;419.05;83.70;;;;;;;;;;5091283;28;20207;-69
2021/12/24 15:00:29;;;;;;;408.02;78.47;;;;;;;;;;5084741;28;20204;-70
2021/12/24 15:02:56;;;;;;;413.20;76.43;;;;;;;;;;5091162;28;20211;-69
2021/12/24 15:05:24;;;;;;;414.30;78.53;;;;;;;;;;5090986;28;20673;-70
2021/12/24 15:07:53;;;;;;;424.08;86.30;;;;;;;;;;5090827;28;20212;-69
2021/12/24 15:10:21;;;;;;;428.15;87.95;;;;;;;;;;5091043;28;20205;-70
2021/12/24 15:12:57;;;;;;;420.02;79.95;;;;;;;;;;5091010;28;20229;-70
2021/12/24 15:15:25;;;;;;;416.95;78.60;;;;;;;;;;5090759;28;20207;-70
2021/12/24 15:17:52;;;;;;;422.58;81.60;;;;;;;;;;5090615;28;20211;-69
2021/12/24 15:20:20;;;;;;;414.45;77.03;;;;;;;;;;5090877;28;20668;-72
2021/12/24 15:22:47;;;;;;;415.17;81.57;;;;;;;;;;5090845;28;20208;-69
2021/12/24 15:25:16;;;;;;;411.98;77.72;;;;;;;;;;5090811;28;20222;-70
2021/12/24 15:27:44;;;;;;;412.15;79.00;;;;;;;;;;5090784;28;20204;-69
2021/12/24 15:30:13;;;;;;;414.38;81.10;;;;;;;;;;5090772;28;20568;-70
2021/12/24 15:32:41;;;;;;;418.25;81.32;;;;;;;;;;5090411;28;20232;-70
2021/12/24 15:35:09;;;;;;;405.30;74.78;;;;;;;;;;5091051;28;20204;-69
2021/12/24 15:37:36;;;;;;;412.10;76.18;;;;;;;;;;5090866;28;20235;-69
2021/12/24 15:40:04;;;;;;;412.65;81.22;;;;;;;;;;5090684;28;20227;-71
2021/12/24 15:42:33;;;;;;;407.77;75.65;;;;;;;;;;5083985;28;20295;-69
2021/12/24 15:45:01;;;;;;;412.88;77.18;;;;;;;;;;5090510;28;20200;-70
2021/12/24 15:47:29;;;;;;;404.63;73.65;;;;;;;;;;5090543;28;20212;-69
2021/12/24 15:49:57;;;;;;;412.70;80.32;;;;;;;;;;5090752;28;20625;-69